Latest Weather Observations for Maitland Airport

IDN60801

Issued at 5:32 am EDT Friday 24 November 2017 (issued every 30 minutes, with the page automatically refreshed every 10 minutes)

About weather observations | Map of weather stations | Latest weather observations for NSW | Other Formats
Station Details ID: 061428 Name: MAITLAND AIRPORT AWS Lat: -32.70 Lon: 151.49 Height: 27.5 m
Data from the previous 72 hours. | See also: Recent months at Maitland Airport
Date/Time
EDT
Temp
°C
App
Temp
°C
Dew
Point
°C
Rel
Hum
%
Delta-T
°C
Wind Press
QNH
hPa
Press
MSL
hPa
Rain since
9am
mm
Dir  Spd
km/h
Gust
km/h
Spd
kts
Gust
kts
24/05:30am 12.8 13.6 12.6 99 0.1 CALM 0 0 0 0 1015.7 1015.6 0.0
24/05:00am 13.2 14.1 13.0 99 0.1 CALM 0 0 0 0 1015.4 1015.3 0.0
24/04:30am 13.3 14.3 13.1 99 0.1 CALM 0 0 0 0 1015.1 1015.0 0.0
24/04:00am 12.8 13.6 12.6 99 0.1 CALM 0 0 0 0 1014.9 1014.8 0.0
24/03:30am 14.2 14.3 14.0 99 0.1 ESE 6 7 3 4 1015.0 1014.9 0.0
24/03:00am 14.9 15.2 14.6 98 0.2 ESE 6 7 3 4 1015.2 1015.1 0.0
24/02:30am 15.3 15.3 15.1 99 0.1 ESE 9 9 5 5 1015.2 1015.1 0.0
24/02:00am 15.1 16.5 14.3 95 0.5 CALM 0 0 0 0 1015.2 1015.1 0.0
24/01:30am 16.3 17.6 15.2 93 0.6 ESE 2 6 1 3 1015.4 1015.3 0.0
24/01:00am 16.5 17.1 15.4 93 0.6 ESE 6 7 3 4 1015.5 1015.4 0.0
24/12:30am 16.7 17.3 15.2 91 0.9 ESE 6 7 3 4 1015.6 1015.5 0.0
24/12:00am 17.1 17.7 15.4 90 1.0 ESE 6 7 3 4 1015.6 1015.5 0.0
 
Date/Time
EDT
Temp
°C
App
Temp
°C
Dew
Point
°C
Rel
Hum
%
Delta-T
°C
Wind Press
QNH
hPa
Press
MSL
hPa
Rain since
9am
mm
Dir  Spd
km/h
Gust
km/h
Spd
kts
Gust
kts
23/11:30pm 17.6 18.2 15.4 87 1.3 ESE 6 9 3 5 1015.8 1015.7 0.0
23/11:00pm 19.0 19.3 16.0 83 1.8 ESE 9 13 5 7 1015.9 1015.8 0.0
23/10:30pm 19.4 19.6 15.7 79 2.2 ESE 9 11 5 6 1015.8 1015.7 0.0
23/10:00pm 20.1 20.6 15.5 75 2.7 ESE 7 11 4 6 1015.7 1015.6 0.0
23/09:30pm 20.2 19.8 15.2 73 3.0 ESE 11 15 6 8 1015.8 1015.7 0.0
23/09:00pm 21.2 20.3 14.8 67 3.8 ESE 13 20 7 11 1015.6 1015.5 0.0
23/08:30pm 21.5 20.1 14.6 65 4.1 E 15 20 8 11 1015.2 1015.1 0.0
23/08:00pm 22.2 21.5 15.3 65 4.1 E 13 17 7 9 1014.8 1014.7 0.0
23/07:30pm 23.1 22.6 15.9 64 4.4 E 13 17 7 9 1014.4 1014.3 0.0
23/07:00pm 23.9 22.2 15.7 60 5.0 ENE 19 22 10 12 1014.0 1013.9 0.0
23/06:30pm 24.9 22.8 15.2 54 5.8 ENE 20 26 11 14 1013.5 1013.4 0.0
23/06:00pm 26.2 24.0 15.9 53 6.3 ENE 22 30 12 16 1013.2 1013.1 0.0
23/05:30pm 26.5 23.5 15.8 51 6.5 NE 26 35 14 19 1013.0 1012.9 0.0
23/05:00pm 27.0 24.7 16.6 53 6.5 ESE 24 33 13 18 1013.1 1013.0 0.0
23/04:30pm 26.9 24.8 16.2 52 6.6 ESE 22 32 12 17 1013.3 1013.2 0.0
23/04:00pm 27.0 24.4 16.0 51 6.8 E 24 32 13 17 1013.5 1013.4 0.0
23/03:30pm 26.9 24.3 15.0 48 7.2 E 22 35 12 19 1013.4 1013.3 0.0
23/03:00pm 27.1 25.2 16.7 53 6.5 E 22 35 12 19 1013.7 1013.6 0.0
23/02:30pm 27.7 26.6 17.3 53 6.5 E 19 26 10 14 1014.2 1014.1 0.0
23/02:00pm 27.1 25.2 15.1 47 7.3 SE 19 28 10 15 1014.7 1014.6 0.0
23/01:30pm 26.3 25.8 12.7 43 7.9 SE 7 11 4 6 1015.1 1015.0 0.0
23/01:00pm 27.0 26.7 15.4 49 7.1 NE 11 17 6 9 1015.6 1015.5 0.0
23/12:30pm 24.9 24.6 14.4 52 6.2 NW 9 17 5 9 1016.0 1015.9 0.0
23/12:00pm 25.5 25.9 16.4 57 5.6 ENE 9 15 5 8 1016.4 1016.3 0.0
23/11:30am 24.5 24.5 15.1 55 5.6 E 9 15 5 8 1016.7 1016.6 0.0
23/11:00am 24.1 23.7 15.1 57 5.4 NE 11 20 6 11 1017.1 1017.0 0.0
23/10:30am 23.4 23.5 16.4 64 4.3 ENE 11 15 6 8 1017.3 1017.2 0.0
23/10:00am 22.0 22.8 16.3 70 3.4 NNE 7 15 4 8 1017.4 1017.3 0.0
23/09:30am 21.8 22.9 16.7 73 3.1 N 6 15 3 8 1017.6 1017.5 0.0
23/09:00am 20.2 20.6 16.4 79 2.3 WSW 9 13 5 7 1017.8 1017.7 0.0
23/08:30am 19.0 21.2 16.6 86 1.4 CALM 0 6 0 3 1017.8 1017.7 0.0
23/08:07am 16.7 19.0 16.7 100 0.0 CALM 0 0 0 0 1017.7 1017.6 0.0
23/08:00am 16.7 19.0 16.7 100 0.0 CALM 0 0 0 0 1017.7 1017.6 0.0
23/07:53am 16.5 18.7 16.5 100 0.0 CALM 0 0 0 0 1017.5 1017.4 0.0
23/07:30am 16.0 18.0 16.0 100 0.0 CALM 0 0 0 0 1017.4 1017.3 0.0
23/07:00am 15.5 17.3 15.5 100 0.0 CALM 0 0 0 0 1017.2 1017.1 0.0
23/06:30am 14.9 16.5 14.9 100 0.0 CALM 0 0 0 0 1017.0 1016.9 0.0
23/06:13am 15.0 16.6 15.0 100 0.0 CALM 0 0 0 0 1016.9 1016.8 0.0
23/06:00am 14.6 14.9 14.6 100 0.0 E 6 7 3 4 1016.8 1016.7 0.0
23/05:57am 14.7 15.1 14.7 100 0.0 E 6 7 3 4 1016.7 1016.6 0.0
23/05:30am 14.8 16.4 14.8 100 0.0 CALM 0 0 0 0 1016.3 1016.2 0.0
23/05:29am 14.9 16.5 14.9 100 0.0 CALM 0 0 0 0 1016.3 1016.2 0.0
23/05:25am 14.4 15.7 14.2 99 0.1 CALM 0 0 0 0 1016.2 1016.1 0.0
23/05:04am 14.3 14.5 14.3 100 0.0 E 6 7 3 4 1016.1 1016.0 0.0
23/05:00am 14.4 14.6 14.2 99 0.1 E 6 7 3 4 1016.1 1016.0 0.0
23/04:52am 14.0 14.1 13.8 99 0.1 E 6 7 3 4 1016.0 1015.9 0.0
23/04:47am 14.0 14.1 13.8 99 0.1 E 6 7 3 4 1015.9 1015.8 0.0
23/04:30am 13.7 13.7 13.5 99 0.1 E 6 7 3 4 1015.8 1015.7 0.0
23/04:27am 14.5 14.7 14.3 99 0.1 E 6 9 3 5 1015.8 1015.7 0.0
23/04:00am 14.8 15.0 14.8 100 0.0 E 7 11 4 6 1015.8 1015.7 0.0
23/03:59am 14.9 15.2 14.9 100 0.0 E 7 11 4 6 1015.8 1015.7 0.0
23/03:41am 14.3 14.3 14.1 99 0.1 E 7 9 4 5 1015.9 1015.8 0.0
23/03:30am 14.7 15.1 14.7 100 0.0 E 6 7 3 4 1016.0 1015.9 0.0
23/03:00am 14.4 14.6 14.2 99 0.1 E 6 7 3 4 1016.1 1016.0 0.0
23/02:30am 14.9 14.8 14.9 100 0.0 E 9 11 5 6 1016.4 1016.3 0.0
23/02:00am 15.6 16.3 15.6 100 0.0 E 6 7 3 4 1016.6 1016.5 0.0
23/01:30am 15.3 15.7 15.3 100 0.0 E 7 9 4 5 1016.9 1016.8 0.0
23/01:00am 16.3 17.5 15.8 97 0.3 E 4 7 2 4 1017.1 1017.0 0.0
23/12:30am 17.3 18.4 16.7 96 0.4 E 6 9 3 5 1017.4 1017.3 0.0
23/12:00am 17.8 18.1 17.0 95 0.5 E 11 13 6 7 1017.4 1017.3 0.0
 
Date/Time
EDT
Temp
°C
App
Temp
°C
Dew
Point
°C
Rel
Hum
%
Delta-T
°C
Wind Press
QNH
hPa
Press
MSL
hPa
Rain since
9am
mm
Dir  Spd
km/h
Gust
km/h
Spd
kts
Gust
kts
22/11:30pm 17.6 17.8 16.8 95 0.5 E 11 15 6 8 1017.5 1017.4 0.0
22/11:00pm 18.0 18.3 17.0 94 0.6 E 11 15 6 8 1017.8 1017.7 0.0
22/10:30pm 18.1 18.8 17.0 93 0.7 E 9 11 5 6 1018.0 1017.9 0.0
22/10:00pm 18.5 19.1 16.8 90 1.0 E 9 15 5 8 1018.2 1018.1 0.0
22/09:30pm 18.9 18.8 16.9 88 1.2 E 13 17 7 9 1018.2 1018.1 0.0
22/09:00pm 19.1 18.5 16.7 86 1.4 ESE 15 20 8 11 1018.2 1018.1 0.0
22/08:30pm 19.4 19.1 16.4 83 1.8 ESE 13 19 7 10 1018.1 1018.0 0.0
22/08:00pm 19.7 18.5 16.0 79 2.2 ESE 17 24 9 13 1017.9 1017.8 0.0
22/07:30pm 20.2 18.4 15.4 74 2.8 ESE 19 28 10 15 1017.7 1017.6 0.0
22/07:00pm 21.0 19.0 14.9 68 3.6 E 19 26 10 14 1017.5 1017.4 0.0
22/06:30pm 21.5 19.3 14.9 66 3.9 ESE 20 30 11 16 1017.3 1017.2 0.0
22/06:00pm 22.2 19.6 14.8 63 4.4 ESE 22 28 12 15 1017.0 1016.9 0.0
22/05:30pm 22.2 20.1 15.1 64 4.2 E 20 28 11 15 1017.0 1016.9 0.0
22/05:00pm 22.7 19.9 15.3 63 4.4 ESE 24 32 13 17 1017.1 1017.0 0.0
22/04:30pm 23.5 20.6 15.0 59 5.1 ESE 24 33 13 18 1017.0 1016.9 0.0
22/04:00pm 22.9 20.6 14.7 60 4.8 ESE 20 28 11 15 1017.3 1017.2 0.0
22/03:30pm 24.0 21.0 13.8 53 6.0 ESE 22 30 12 16 1017.4 1017.3 0.0
22/03:00pm 23.2 19.3 12.2 50 6.2 SE 24 33 13 18 1017.9 1017.8 0.0
22/02:30pm 24.2 21.5 14.6 55 5.7 ESE 22 32 12 17 1018.1 1018.0 0.0
22/02:00pm 25.1 21.9 14.3 51 6.4 ESE 24 35 13 19 1018.2 1018.1 0.0
22/01:30pm 23.9 19.9 11.9 47 6.8 SE 24 32 13 17 1018.5 1018.4 0.0
22/01:00pm 23.4 20.5 13.0 52 6.0 SE 20 30 11 16 1018.8 1018.7 0.0
22/12:30pm 23.8 20.6 11.8 47 6.8 ESE 20 35 11 19 1019.2 1019.1 0.0
22/12:00pm 23.2 20.0 11.9 49 6.4 ESE 20 33 11 18 1019.3 1019.2 0.0
22/11:30am 23.1 20.0 11.5 48 6.5 ESE 19 26 10 14 1019.7 1019.6 0.0
22/11:00am 22.7 19.9 12.6 53 5.7 E 19 28 10 15 1019.9 1019.8 0.0
22/10:30am 22.2 20.2 13.8 59 4.9 ESE 17 28 9 15 1020.0 1019.9 0.0
22/10:00am 21.0 20.6 15.3 70 3.4 SE 11 17 6 9 1020.2 1020.1 0.0
22/09:30am 20.7 19.4 14.8 69 3.5 ESE 15 20 8 11 1020.3 1020.2 0.0
22/09:00am 21.6 20.3 15.7 69 3.5 E 17 24 9 13 1020.5 1020.4 0.0
22/08:30am 20.7 19.7 15.7 73 3.0 ESE 15 22 8 12 1020.5 1020.4 0.0
22/08:00am 20.1 20.4 16.9 82 1.9 ESE 11 13 6 7 1020.5 1020.4 0.0
22/07:30am 18.2 19.6 16.4 89 1.1 ESE 4 9 2 5 1020.4 1020.3 0.0
22/07:00am 16.7 18.8 16.2 97 0.3 CALM 0 0 0 0 1020.4 1020.3 0.0
22/06:30am 14.7 16.2 14.7 100 0.0 CALM 0 0 0 0 1020.4 1020.3 0.0
22/06:00am 13.7 14.8 13.5 99 0.1 CALM 0 0 0 0 1019.8 1019.7 0.0
22/05:30am 13.8 14.9 13.6 99 0.1 CALM 0 0 0 0 1019.6 1019.5 0.0
22/05:00am 13.9 15.1 13.7 99 0.1 CALM 0 0 0 0 1019.6 1019.5 0.0
22/04:30am 13.6 14.7 13.4 99 0.1 CALM 0 0 0 0 1019.6 1019.5 0.0
22/04:00am 14.1 15.3 13.9 99 0.1 CALM 0 0 0 0 1019.6 1019.5 0.0
22/03:30am 14.2 15.5 14.2 100 0.0 CALM 0 0 0 0 1019.7 1019.6 0.0
22/03:00am 15.1 16.8 15.1 100 0.0 CALM 0 0 0 0 1019.9 1019.8 0.0
22/02:30am 15.4 16.7 15.1 98 0.2 ESE 2 6 1 3 1020.0 1019.9 0.0
22/02:00am 16.0 16.7 15.5 97 0.3 ESE 6 7 3 4 1020.3 1020.2 0.0
22/01:30am 16.2 16.8 15.7 97 0.3 ESE 7 9 4 5 1020.4 1020.3 0.0
22/01:00am 16.5 17.1 15.9 96 0.4 ESE 7 9 4 5 1020.8 1020.7 0.0
22/12:30am 16.0 17.8 15.4 96 0.3 CALM 0 0 0 0 1021.0 1020.9 0.0
22/12:00am 16.3 18.3 16.0 98 0.2 CALM 0 0 0 0 1021.3 1021.2 0.0
 
Date/Time
EDT
Temp
°C
App
Temp
°C
Dew
Point
°C
Rel
Hum
%
Delta-T
°C
Wind Press
QNH
hPa
Press
MSL
hPa
Rain since
9am
mm
Dir  Spd
km/h
Gust
km/h
Spd
kts
Gust
kts
21/11:30pm 15.9 17.6 15.3 96 0.3 CALM 0 0 0 0 1021.5 1021.4 0.0
21/11:00pm 15.7 17.4 15.1 96 0.3 CALM 0 0 0 0 1021.7 1021.6 0.0
21/10:30pm 16.2 17.8 14.9 92 0.7 CALM 0 0 0 0 1021.8 1021.7 0.0
21/10:00pm 17.1 17.6 14.9 87 1.3 ESE 6 7 3 4 1022.0 1021.9 0.0
21/09:30pm 18.0 18.3 15.1 83 1.7 ESE 7 11 4 6 1021.8 1021.7 0.0
21/09:00pm 18.4 17.9 14.9 80 2.0 ESE 11 15 6 8 1021.7 1021.6 0.0
21/08:30pm 19.1 17.8 14.8 76 2.5 ESE 15 20 8 11 1021.6 1021.5 0.0
21/08:00pm 19.5 17.1 14.5 73 2.9 ESE 20 28 11 15 1021.6 1021.5 0.0
21/07:30pm 19.9 17.5 14.5 71 3.1 ESE 20 26 11 14 1021.5 1021.4 0.0
21/07:00pm 20.3 17.7 13.7 66 3.8 E 20 30 11 16 1021.4 1021.3 0.0
21/06:30pm 21.1 16.9 12.5 58 4.9 ESE 26 37 14 20 1021.1 1021.0 0.0
21/06:00pm 21.6 17.1 12.7 57 5.0 ESE 28 39 15 21 1020.9 1020.8 0.0
21/05:30pm 22.0 17.8 12.3 54 5.5 ESE 26 33 14 18 1020.9 1020.8 0.0
21/05:00pm 22.9 18.3 12.2 51 6.1 ESE 28 37 15 20 1020.7 1020.6 0.0
21/04:30pm 23.3 19.2 12.6 51 6.1 ESE 26 35 14 19 1020.9 1020.8 0.0
21/04:00pm 23.7 19.9 12.4 49 6.4 ESE 24 33 13 18 1021.0 1020.9 0.0
21/03:30pm 24.1 21.0 13.3 51 6.3 ESE 22 35 12 19 1021.2 1021.1 0.0
21/03:00pm 24.7 21.7 13.6 50 6.5 ESE 22 33 12 18 1021.4 1021.3 0.0
21/02:30pm 23.9 20.8 12.2 48 6.7 ESE 20 35 11 19 1021.6 1021.5 0.0
21/02:00pm 23.9 20.9 13.7 53 5.9 ESE 22 32 12 17 1021.9 1021.8 0.0
21/01:30pm 23.1 20.1 11.8 49 6.4 ESE 19 28 10 15 1022.2 1022.1 0.0
21/01:00pm 24.1 21.2 12.4 48 6.7 ESE 19 26 10 14 1022.4 1022.3 0.0
21/12:30pm 23.1 20.6 12.4 51 6.1 ESE 17 26 9 14 1022.8 1022.7 0.0
21/12:00pm 23.7 21.4 13.0 51 6.2 ESE 17 26 9 14 1023.2 1023.1 0.0
21/11:30am 23.2 21.1 13.7 55 5.5 SE 17 33 9 18 1023.4 1023.3 0.0
21/11:00am 22.3 21.3 13.4 57 5.1 SSE 11 19 6 10 1023.6 1023.5 0.0
21/10:30am 21.2 18.8 12.6 58 4.9 SE 17 24 9 13 1023.9 1023.8 0.0
21/10:00am 21.1 18.9 12.0 56 5.1 ESE 15 22 8 12 1024.1 1024.0 0.0
21/09:30am 20.3 18.2 12.3 60 4.5 SE 15 20 8 11 1024.1 1024.0 0.0
21/09:00am 20.8 19.3 13.0 61 4.4 ESE 13 20 7 11 1024.1 1024.0 0.0
21/08:30am 19.9 19.1 14.0 69 3.4 SE 11 17 6 9 1024.1 1024.0 0.0
21/08:00am 19.0 19.2 14.7 76 2.5 ESE 7 11 4 6 1024.0 1023.9 0.0
21/07:30am 17.9 19.9 16.1 89 1.1 CALM 0 7 0 4 1023.8 1023.7 0.0
21/07:02am 15.6 17.4 15.6 100 0.0 CALM 0 0 0 0 1023.7 1023.6 0.0
21/07:00am 15.5 17.3 15.5 100 0.0 CALM 0 0 0 0 1023.6 1023.5 0.0
21/06:44am 14.3 15.7 14.3 100 0.0 CALM 0 0 0 0 1023.5 1023.4 0.0
21/06:30am 13.9 15.1 13.7 99 0.1 CALM 0 0 0 0 1023.4 1023.3 0.0
21/06:00am 13.3 14.3 13.1 99 0.1 CALM 0 0 0 0 1023.1 1023.0 0.0

Other Formats:

Comma delimited format used in spreadsheet applications
http://www.bom.gov.au/fwo/IDN60801/IDN60801.94650.axf

JavaScript Object Notation format (JSON) in row-major order
http://www.bom.gov.au/fwo/IDN60801/IDN60801.94650.json